createdAt,value
2019-01-23T00:01:31.069Z,3.37
2019-01-23T00:04:01.200Z,3.60
2019-01-23T00:06:31.417Z,3.67
2019-01-23T00:09:01.785Z,3.70
2019-01-23T00:11:31.718Z,4.80
2019-01-23T00:14:01.684Z,5.17
2019-01-23T00:16:31.649Z,8.10
2019-01-23T00:19:01.602Z,6.30
2019-01-23T00:21:31.569Z,5.83
2019-01-23T00:24:01.948Z,4.90
2019-01-23T00:26:31.846Z,4.40
2019-01-23T00:29:01.851Z,5.40
2019-01-23T00:31:32.097Z,4.70
2019-01-23T00:34:02.281Z,4.30
2019-01-23T00:36:32.229Z,4.67
2019-01-23T00:39:02.186Z,3.40
2019-01-23T00:41:32.294Z,3.70
2019-01-23T00:44:02.245Z,3.93
2019-01-23T00:46:32.181Z,3.20
2019-01-23T00:49:02.205Z,3.17
2019-01-23T00:51:32.133Z,3.03
2019-01-23T00:54:02.319Z,2.80
2019-01-23T00:56:32.305Z,2.77
2019-01-23T00:59:02.270Z,2.90
2019-01-23T01:01:32.289Z,2.67
2019-01-23T01:04:02.273Z,2.83
2019-01-23T01:06:32.227Z,2.50
2019-01-23T01:09:02.226Z,2.70
2019-01-23T01:11:32.118Z,2.63
2019-01-23T01:14:02.043Z,3.03
2019-01-23T01:16:31.953Z,3.00
2019-01-23T01:19:01.889Z,3.10
2019-01-23T01:21:31.781Z,2.47
2019-01-23T01:24:01.677Z,3.17
2019-01-23T01:26:31.625Z,3.07
2019-01-23T01:29:01.525Z,3.30
2019-01-23T01:31:31.630Z,2.60
2019-01-23T01:34:01.990Z,2.87
2019-01-23T01:36:31.998Z,2.73
2019-01-23T01:39:02.263Z,3.13
2019-01-23T01:41:32.272Z,2.53
2019-01-23T01:44:02.212Z,2.83
2019-01-23T01:46:32.161Z,2.47
2019-01-23T01:49:02.130Z,2.83
2019-01-23T01:51:32.102Z,2.60
2019-01-23T01:54:02.057Z,2.20
2019-01-23T01:56:32.001Z,2.27
2019-01-23T01:59:02.914Z,2.40
2019-01-23T02:01:33.149Z,2.60
2019-01-23T02:04:03.287Z,2.10
2019-01-23T02:06:33.473Z,2.87
2019-01-23T02:09:04.385Z,2.13
2019-01-23T02:11:34.391Z,2.73
2019-01-23T02:14:04.629Z,2.57
2019-01-23T02:16:34.721Z,2.53
2019-01-23T02:19:04.954Z,2.80
2019-01-23T02:21:34.978Z,2.60
2019-01-23T02:24:05.448Z,3.00
2019-01-23T02:26:35.677Z,2.80
2019-01-23T02:29:09.504Z,2.40
2019-01-23T02:31:37.845Z,2.40
2019-01-23T02:34:08.109Z,5.53
2019-01-23T02:36:38.097Z,2.50
2019-01-23T02:39:08.973Z,2.10
2019-01-23T02:41:38.929Z,2.40
2019-01-23T02:44:09.065Z,4.03
2019-01-23T02:46:39.506Z,2.90
2019-01-23T02:49:09.410Z,2.70
2019-01-23T02:51:39.581Z,2.30
2019-01-23T02:54:09.587Z,2.80
2019-01-23T02:56:39.775Z,2.40
2019-01-23T02:59:09.719Z,1.90
2019-01-23T03:01:39.690Z,2.10
2019-01-23T03:04:09.812Z,2.27
2019-01-23T03:06:40.066Z,2.03
2019-01-23T03:09:10.246Z,1.90
2019-01-23T03:11:40.480Z,1.90
2019-01-23T03:14:10.720Z,2.13
2019-01-23T03:16:40.914Z,2.30
2019-01-23T03:19:10.862Z,2.23
2019-01-23T03:21:40.822Z,2.20
2019-01-23T03:24:11.174Z,2.50
2019-01-23T03:26:41.161Z,2.00
2019-01-23T03:29:11.582Z,2.47
2019-01-23T03:31:41.643Z,2.27
2019-01-23T03:34:11.853Z,2.47
2019-01-23T03:36:42.082Z,2.07
2019-01-23T03:39:12.062Z,2.10
2019-01-23T03:41:42.249Z,2.60
2019-01-23T03:44:12.452Z,2.50
2019-01-23T03:46:42.614Z,2.17
2019-01-23T03:49:12.561Z,2.67
2019-01-23T03:51:42.497Z,2.40
2019-01-23T03:54:12.729Z,2.67
2019-01-23T03:56:43.109Z,2.67
2019-01-23T03:59:13.133Z,2.70
2019-01-23T04:01:43.435Z,2.40
2019-01-23T04:04:13.597Z,2.60
2019-01-23T04:06:43.792Z,2.00
2019-01-23T04:09:13.789Z,2.40
2019-01-23T04:11:44.026Z,2.57
2019-01-23T04:14:14.297Z,2.33
2019-01-23T04:16:44.393Z,2.10
2019-01-23T04:19:14.405Z,2.20
2019-01-23T04:21:44.349Z,2.63
2019-01-23T04:24:14.491Z,2.37
2019-01-23T04:26:44.687Z,2.00
2019-01-23T04:29:14.669Z,2.20
2019-01-23T04:31:44.646Z,2.03
2019-01-23T04:34:14.792Z,2.20
2019-01-23T04:36:44.765Z,1.97
2019-01-23T04:39:14.760Z,1.70
2019-01-23T04:41:44.706Z,2.37
2019-01-23T04:44:14.657Z,1.87
2019-01-23T04:46:44.629Z,1.97
2019-01-23T04:49:14.596Z,2.20
2019-01-23T04:51:50.621Z,2.20
2019-01-23T04:54:20.538Z,1.70
2019-01-23T04:56:50.692Z,1.80
2019-01-23T04:59:20.886Z,2.00
2019-01-23T05:01:50.849Z,2.00
2019-01-23T05:04:20.790Z,2.30
2019-01-23T05:06:50.754Z,2.30
2019-01-23T05:09:20.813Z,2.23
2019-01-23T05:11:50.789Z,2.47
2019-01-23T05:14:20.763Z,1.80
2019-01-23T05:16:50.693Z,2.80
2019-01-23T05:19:20.787Z,1.80
2019-01-23T05:21:50.737Z,2.50
2019-01-23T05:24:21.145Z,2.10
2019-01-23T05:26:51.133Z,1.90
2019-01-23T05:29:21.122Z,1.73
2019-01-23T05:31:51.437Z,2.37
2019-01-23T05:34:21.362Z,1.97
2019-01-23T05:36:51.424Z,1.87
2019-01-23T05:39:21.436Z,1.80
2019-01-23T05:41:51.348Z,2.50
2019-01-23T05:44:21.423Z,2.00
2019-01-23T05:46:51.806Z,1.90
2019-01-23T05:49:21.785Z,1.90
2019-01-23T05:51:51.709Z,1.80
2019-01-23T05:54:22.505Z,1.90
2019-01-23T05:56:52.433Z,1.60
2019-01-23T05:59:22.422Z,1.87
2019-01-23T06:01:52.541Z,1.97
2019-01-23T06:04:22.461Z,2.00
2019-01-23T06:06:52.479Z,2.03
2019-01-23T06:09:22.881Z,2.10
2019-01-23T06:11:52.998Z,1.90
2019-01-23T06:14:22.962Z,2.07
2019-01-23T06:16:52.937Z,2.20
2019-01-23T06:19:22.917Z,1.93
2019-01-23T06:21:52.824Z,1.90
2019-01-23T06:24:23.359Z,1.90
2019-01-23T06:26:53.356Z,1.97
2019-01-23T06:29:28.858Z,2.40
2019-01-23T06:31:59.562Z,2.00
2019-01-23T06:34:29.544Z,2.07
2019-01-23T06:37:00.185Z,1.90
2019-01-23T06:39:30.181Z,1.80
2019-01-23T06:42:00.439Z,1.67
2019-01-23T06:44:30.465Z,2.00
2019-01-23T06:47:00.439Z,2.60
2019-01-23T06:49:30.407Z,1.87
2019-01-23T06:52:01.116Z,2.00
2019-01-23T06:54:31.158Z,1.90
2019-01-23T06:57:01.162Z,1.90
2019-01-23T06:59:31.202Z,1.83
2019-01-23T07:02:01.301Z,2.10
2019-01-23T07:04:31.281Z,1.90
2019-01-23T07:07:01.254Z,2.20
2019-01-23T07:09:31.237Z,2.10
2019-01-23T07:12:10.956Z,2.37
2019-01-23T07:14:42.837Z,2.07
2019-01-23T07:17:29.202Z,2.20
2019-01-23T07:20:12.082Z,2.10
2019-01-23T07:22:43.186Z,2.20
2019-01-23T07:25:13.370Z,2.10
2019-01-23T07:27:43.325Z,2.03
2019-01-23T07:30:48.578Z,2.00
2019-01-23T07:33:18.684Z,1.80
2019-01-23T07:35:58.564Z,2.00
2019-01-23T07:38:28.549Z,1.77
2019-01-23T07:40:59.125Z,1.87
2019-01-23T07:43:29.487Z,1.90
2019-01-23T07:45:59.877Z,1.70
2019-01-23T07:48:44.499Z,2.07
2019-01-23T07:51:14.473Z,2.00
2019-01-23T07:53:44.465Z,2.17
2019-01-23T07:56:14.453Z,1.70
2019-01-23T07:58:44.483Z,1.90
2019-01-23T08:01:14.750Z,2.00
2019-01-23T08:03:44.637Z,1.80
2019-01-23T08:06:14.581Z,1.90
2019-01-23T08:08:44.829Z,1.70
2019-01-23T08:11:14.900Z,1.70
2019-01-23T08:13:44.912Z,1.67
2019-01-23T08:16:15.130Z,1.90
2019-01-23T08:18:45.062Z,1.53
2019-01-23T08:21:15.053Z,1.47
2019-01-23T08:23:44.965Z,1.53
2019-01-23T08:26:14.950Z,1.40
2019-01-23T08:28:44.919Z,1.20
2019-01-23T08:31:14.889Z,1.60
2019-01-23T08:33:44.877Z,1.00
2019-01-23T08:36:14.809Z,1.10
2019-01-23T08:38:44.829Z,0.90
2019-01-23T08:41:14.802Z,1.00
2019-01-23T08:43:44.905Z,1.50
2019-01-23T08:46:14.957Z,0.90
2019-01-23T08:48:44.960Z,0.87
2019-01-23T08:51:15.778Z,0.90
2019-01-23T08:53:45.941Z,0.97
2019-01-23T08:56:15.898Z,0.80
2019-01-23T08:58:45.829Z,0.80
2019-01-23T09:01:15.765Z,0.90
2019-01-23T09:03:45.753Z,0.60
2019-01-23T09:06:15.700Z,0.97
2019-01-23T09:08:45.689Z,0.60
2019-01-23T09:11:15.621Z,1.00
2019-01-23T09:13:45.558Z,1.50
2019-01-23T09:16:15.524Z,1.20
2019-01-23T09:18:45.467Z,0.90
2019-01-23T09:21:15.486Z,0.83
2019-01-23T09:23:45.475Z,0.70
2019-01-23T09:26:15.433Z,1.20
2019-01-23T09:28:45.449Z,0.70
2019-01-23T09:31:42.153Z,1.00
2019-01-23T09:34:39.453Z,1.00
2019-01-23T09:37:31.677Z,1.03
2019-01-23T09:40:38.677Z,0.80
2019-01-23T09:43:38.748Z,0.60
2019-01-23T09:46:31.194Z,1.10
2019-01-23T09:49:44.900Z,1.23
2019-01-23T09:52:51.110Z,1.07
2019-01-23T09:55:21.068Z,1.00
2019-01-23T09:57:54.942Z,1.90
2019-01-23T10:00:27.549Z,3.50
2019-01-23T10:02:57.557Z,1.10
2019-01-23T10:05:27.611Z,2.40
2019-01-23T10:07:57.700Z,0.90
2019-01-23T10:10:27.594Z,1.23
2019-01-23T10:12:57.543Z,1.50
2019-01-23T10:15:40.695Z,1.00
2019-01-23T10:18:10.736Z,2.30
2019-01-23T10:20:40.717Z,1.20
2019-01-23T10:23:10.781Z,1.00
2019-01-23T10:25:40.932Z,1.00
2019-01-23T10:28:11.085Z,1.53
2019-01-23T10:30:41.261Z,11.80
2019-01-23T10:33:11.230Z,2.70
2019-01-23T10:35:41.224Z,1.23
2019-01-23T10:38:11.237Z,1.60
2019-01-23T10:40:41.201Z,0.93
2019-01-23T10:43:11.245Z,1.00
2019-01-23T10:45:41.333Z,1.10
2019-01-23T10:48:11.234Z,0.80
2019-01-23T10:50:41.230Z,1.00
2019-01-23T10:53:11.255Z,1.10
2019-01-23T10:55:41.301Z,0.80
2019-01-23T10:58:11.298Z,1.47
2019-01-23T11:00:41.745Z,0.80
2019-01-23T11:03:11.845Z,0.90
2019-01-23T11:05:41.849Z,0.93
2019-01-23T11:08:11.782Z,0.93
2019-01-23T11:10:41.722Z,1.30
2019-01-23T11:13:11.689Z,1.00
2019-01-23T11:15:41.729Z,1.37
2019-01-23T11:18:11.941Z,1.00
2019-01-23T11:20:41.993Z,0.83
2019-01-23T11:23:11.909Z,1.13
2019-01-23T11:25:42.009Z,1.23
2019-01-23T11:28:12.034Z,1.10
2019-01-23T11:30:42.282Z,1.07
2019-01-23T11:33:12.441Z,0.80
2019-01-23T11:35:42.355Z,1.10
2019-01-23T11:38:12.625Z,1.47
2019-01-23T11:40:42.682Z,1.00
2019-01-23T11:43:28.125Z,1.03
2019-01-23T11:45:58.081Z,1.03
2019-01-23T11:48:28.118Z,1.30
2019-01-23T11:50:58.009Z,1.07
2019-01-23T11:53:27.989Z,1.10
2019-01-23T11:55:57.993Z,0.80
2019-01-23T11:58:28.049Z,1.80
2019-01-23T12:00:58.107Z,1.20
2019-01-23T12:03:28.179Z,0.90
2019-01-23T12:05:58.127Z,1.30
2019-01-23T12:08:28.113Z,0.97
2019-01-23T12:10:58.217Z,0.80
2019-01-23T12:13:53.405Z,1.10
2019-01-23T12:16:24.915Z,1.00
2019-01-23T12:18:55.006Z,0.83
2019-01-23T12:21:31.138Z,0.80
2019-01-23T12:24:12.866Z,0.90
2019-01-23T12:26:42.890Z,0.90
2019-01-23T12:29:13.029Z,0.97
2019-01-23T12:31:42.957Z,0.90
2019-01-23T12:34:12.877Z,1.10
2019-01-23T12:37:20.729Z,0.90
2019-01-23T12:39:50.685Z,0.90
2019-01-23T12:42:20.757Z,1.00
2019-01-23T12:44:50.723Z,0.80
2019-01-23T12:47:20.810Z,1.00
2019-01-23T12:49:50.761Z,1.10
2019-01-23T12:52:21.041Z,1.07
2019-01-23T12:54:51.137Z,0.80
2019-01-23T12:57:21.149Z,0.83
2019-01-23T12:59:51.599Z,0.90
2019-01-23T13:02:21.502Z,0.87
2019-01-23T13:04:53.473Z,1.10
2019-01-23T13:07:23.594Z,1.00
2019-01-23T13:09:53.734Z,1.10
2019-01-23T13:12:23.800Z,1.30
2019-01-23T13:14:53.858Z,1.07
2019-01-23T13:17:23.805Z,1.53
2019-01-23T13:19:54.201Z,1.50
2019-01-23T13:22:24.201Z,1.50
2019-01-23T13:24:54.138Z,1.63
2019-01-23T13:27:24.143Z,1.40
2019-01-23T13:29:54.227Z,1.37
2019-01-23T13:32:24.158Z,1.50
2019-01-23T13:34:54.194Z,1.40
2019-01-23T13:37:24.328Z,1.40
2019-01-23T13:39:54.281Z,1.30
2019-01-23T13:42:24.234Z,1.50
2019-01-23T13:44:55.301Z,1.43
2019-01-23T13:47:25.258Z,0.70
2019-01-23T13:49:55.306Z,1.03
2019-01-23T13:52:25.710Z,0.80
2019-01-23T13:54:55.946Z,0.70
2019-01-23T13:57:25.965Z,0.83
2019-01-23T13:59:55.901Z,0.80
2019-01-23T14:02:25.819Z,0.80
2019-01-23T14:04:55.767Z,1.07
2019-01-23T14:07:25.842Z,1.23
2019-01-23T14:09:56.049Z,1.40
2019-01-23T14:12:26.181Z,1.17
2019-01-23T14:14:56.169Z,1.20
2019-01-23T14:17:26.101Z,0.90
2019-01-23T14:19:56.041Z,0.80
2019-01-23T14:22:26.017Z,0.90
2019-01-23T14:24:55.974Z,1.33
2019-01-23T14:27:25.984Z,1.17
2019-01-23T14:29:55.951Z,0.80
2019-01-23T14:32:25.902Z,0.80
2019-01-23T14:34:55.845Z,1.00
2019-01-23T14:37:25.864Z,1.00
2019-01-23T14:39:57.147Z,0.80
2019-01-23T14:42:27.330Z,0.80
2019-01-23T14:44:57.358Z,0.87
2019-01-23T14:47:27.299Z,1.00
2019-01-23T14:49:57.189Z,0.93
2019-01-23T14:52:27.113Z,0.80
2019-01-23T14:54:57.149Z,0.83
2019-01-23T14:57:27.083Z,0.97
2019-01-23T14:59:57.125Z,1.20
2019-01-23T15:02:27.262Z,1.27
2019-01-23T15:04:57.977Z,1.10
2019-01-23T15:07:28.329Z,1.10
2019-01-23T15:09:58.409Z,1.10
2019-01-23T15:12:28.378Z,1.00
2019-01-23T15:14:58.320Z,1.30
2019-01-23T15:17:28.321Z,1.10
2019-01-23T15:19:58.299Z,1.00
2019-01-23T15:22:28.300Z,1.23
2019-01-23T15:24:58.278Z,1.07
2019-01-23T15:27:28.213Z,1.50
2019-01-23T15:29:58.227Z,1.90
2019-01-23T15:32:28.265Z,1.70
2019-01-23T15:34:58.249Z,1.30
2019-01-23T15:37:28.344Z,1.47
2019-01-23T15:39:58.245Z,2.27
2019-01-23T15:42:28.173Z,1.40
2019-01-23T15:44:58.281Z,3.07
2019-01-23T15:47:28.350Z,1.90
2019-01-23T15:49:58.333Z,1.73
2019-01-23T15:52:28.308Z,2.20
2019-01-23T15:54:58.332Z,1.13
2019-01-23T15:57:28.318Z,1.20
2019-01-23T15:59:58.302Z,1.70
2019-01-23T16:02:28.378Z,1.50
2019-01-23T16:04:58.392Z,1.60
2019-01-23T16:07:28.626Z,1.50
2019-01-23T16:09:58.573Z,1.30
2019-01-23T16:12:28.570Z,1.27
2019-01-23T16:14:58.527Z,1.70
2019-01-23T16:17:28.802Z,1.70
2019-01-23T16:19:58.724Z,1.90
2019-01-23T16:22:29.079Z,1.60
2019-01-23T16:24:59.128Z,1.50
2019-01-23T16:27:29.200Z,1.53
2019-01-23T16:29:59.158Z,1.60
2019-01-23T16:32:31.643Z,1.53
2019-01-23T16:35:00.718Z,1.50
2019-01-23T16:37:30.678Z,1.70
2019-01-23T16:40:00.577Z,1.83
2019-01-23T16:42:30.644Z,2.10
2019-01-23T16:45:00.806Z,1.97
2019-01-23T16:47:30.901Z,2.70
2019-01-23T16:50:00.762Z,1.90
2019-01-23T16:52:30.698Z,2.00
2019-01-23T16:55:00.811Z,1.60
2019-01-23T16:57:30.761Z,1.87
2019-01-23T17:00:00.749Z,1.33
2019-01-23T17:02:30.717Z,1.30
2019-01-23T17:05:00.789Z,1.47
2019-01-23T17:07:30.776Z,1.40
2019-01-23T17:10:00.826Z,1.70
2019-01-23T17:12:30.846Z,1.50
2019-01-23T17:15:00.769Z,1.20
2019-01-23T17:17:30.813Z,1.30
2019-01-23T17:20:00.781Z,1.00
2019-01-23T17:22:30.857Z,1.40
2019-01-23T17:25:00.984Z,1.20
2019-01-23T17:27:30.910Z,1.13
2019-01-23T17:30:00.853Z,1.27
2019-01-23T17:32:31.172Z,1.33
2019-01-23T17:35:01.229Z,1.70
2019-01-23T17:37:31.271Z,1.10
2019-01-23T17:40:01.287Z,0.90
2019-01-23T17:42:31.292Z,1.40
2019-01-23T17:45:01.514Z,1.30
2019-01-23T17:47:31.571Z,1.00
2019-01-23T17:50:01.501Z,1.20
2019-01-23T17:52:31.477Z,1.80
2019-01-23T17:55:01.461Z,1.20
2019-01-23T17:57:31.536Z,1.20
2019-01-23T18:00:03.390Z,1.00
2019-01-23T18:02:33.390Z,1.47
2019-01-23T18:05:03.433Z,1.10
2019-01-23T18:07:33.823Z,1.40
2019-01-23T18:10:04.346Z,0.97
2019-01-23T18:12:37.389Z,0.70
2019-01-23T18:15:09.578Z,0.87
2019-01-23T18:17:39.609Z,0.90
2019-01-23T18:20:12.859Z,0.87
2019-01-23T18:22:43.966Z,1.00
2019-01-23T18:25:15.376Z,1.10
2019-01-23T18:27:45.568Z,2.37
2019-01-23T18:30:25.705Z,0.60
2019-01-23T18:32:59.962Z,0.90
2019-01-23T18:35:56.036Z,1.60
2019-01-23T18:38:36.813Z,0.90
2019-01-23T18:42:08.817Z,0.77
2019-01-23T18:45:02.908Z,0.80
2019-01-23T18:48:05.302Z,1.33
2019-01-23T18:51:10.673Z,0.90
2019-01-23T18:53:40.673Z,1.00
2019-01-23T18:56:11.293Z,1.00
2019-01-23T18:58:41.340Z,1.77
2019-01-23T19:01:12.657Z,0.83
2019-01-23T19:03:43.112Z,0.90
2019-01-23T19:06:13.025Z,0.80
2019-01-23T19:08:43.538Z,1.27
2019-01-23T19:11:14.615Z,1.37
2019-01-23T19:13:44.718Z,1.20
2019-01-23T19:16:16.010Z,0.90
2019-01-23T19:18:46.294Z,0.77
2019-01-23T19:21:16.301Z,0.90
2019-01-23T19:23:46.386Z,1.00
2019-01-23T19:26:16.586Z,2.27
2019-01-23T19:28:46.791Z,1.97
2019-01-23T19:31:17.357Z,0.90
2019-01-23T19:33:47.558Z,0.80
2019-01-23T19:36:18.159Z,2.20
2019-01-23T19:38:48.217Z,1.87
2019-01-23T19:41:20.525Z,1.80
2019-01-23T19:43:50.782Z,1.27
2019-01-23T19:46:20.724Z,1.10
2019-01-23T19:48:56.269Z,0.70
2019-01-23T19:51:26.453Z,0.90
2019-01-23T19:53:56.430Z,0.87
2019-01-23T19:56:26.935Z,0.87
2019-01-23T19:58:56.899Z,0.90
2019-01-23T20:01:26.808Z,0.70
2019-01-23T20:03:56.800Z,0.70
2019-01-23T20:06:26.685Z,1.10
2019-01-23T20:08:57.109Z,0.60
2019-01-23T20:11:27.039Z,0.70
2019-01-23T20:13:57.297Z,0.60
2019-01-23T20:16:27.256Z,0.90
2019-01-23T20:18:58.245Z,0.80
2019-01-23T20:21:28.355Z,0.60
2019-01-23T20:23:58.305Z,0.70
2019-01-23T20:26:28.877Z,0.70
2019-01-23T20:28:59.274Z,0.70
2019-01-23T20:31:30.146Z,0.80
2019-01-23T20:34:02.746Z,1.10
2019-01-23T20:36:33.854Z,0.90
2019-01-23T20:39:05.758Z,0.70
2019-01-23T20:41:37.060Z,0.63
2019-01-23T20:44:07.434Z,1.00
2019-01-23T20:46:38.327Z,0.73
2019-01-23T20:49:09.786Z,0.90
2019-01-23T20:51:39.691Z,1.00
2019-01-23T20:54:09.711Z,0.97
2019-01-23T20:56:41.542Z,0.70
2019-01-23T20:59:14.791Z,0.70
2019-01-23T21:01:44.997Z,0.80
2019-01-23T21:04:15.250Z,0.77
2019-01-23T21:06:45.165Z,0.60
2019-01-23T21:09:15.422Z,0.70
2019-01-23T21:11:45.878Z,1.07
2019-01-23T21:14:16.124Z,0.70
2019-01-23T21:16:46.177Z,0.60
2019-01-23T21:19:16.286Z,0.90
2019-01-23T21:21:46.330Z,0.60
2019-01-23T21:24:16.554Z,1.20
2019-01-23T21:26:47.561Z,0.70
2019-01-23T21:29:17.549Z,0.80
2019-01-23T21:31:47.454Z,0.80
2019-01-23T21:34:17.586Z,1.00
2019-01-23T21:36:47.520Z,0.70
2019-01-23T21:39:18.749Z,0.83
2019-01-23T21:41:51.652Z,0.70
2019-01-23T21:44:21.874Z,1.60
2019-01-23T21:46:51.877Z,0.80
2019-01-23T21:49:21.907Z,1.30
2019-01-23T21:51:51.925Z,0.80
2019-01-23T21:54:22.818Z,1.20
2019-01-23T21:56:52.813Z,1.50
2019-01-23T21:59:23.157Z,0.90
2019-01-23T22:01:53.625Z,1.03
2019-01-23T22:04:23.677Z,0.80
2019-01-23T22:06:53.661Z,1.40
2019-01-23T22:09:23.614Z,1.63
2019-01-23T22:11:53.612Z,1.13
2019-01-23T22:14:23.594Z,2.07
2019-01-23T22:16:54.165Z,0.70
2019-01-23T22:19:24.143Z,0.90
2019-01-23T22:21:54.141Z,0.90
2019-01-23T22:24:24.513Z,0.80
2019-01-23T22:26:54.391Z,0.77
2019-01-23T22:29:24.337Z,0.90
2019-01-23T22:31:54.519Z,1.10
2019-01-23T22:34:25.078Z,0.80
2019-01-23T22:36:57.127Z,0.90
2019-01-23T22:39:27.085Z,1.73
2019-01-23T22:41:56.995Z,1.07
2019-01-23T22:44:29.123Z,1.03
2019-01-23T22:46:59.258Z,2.80
2019-01-23T22:49:29.626Z,1.67
2019-01-23T22:51:59.729Z,1.30
2019-01-23T22:54:29.921Z,1.40
2019-01-23T22:56:59.945Z,1.60
2019-01-23T22:59:30.405Z,0.97
2019-01-23T23:02:00.470Z,1.60
2019-01-23T23:04:30.569Z,1.30
2019-01-23T23:07:00.571Z,1.30
2019-01-23T23:09:30.505Z,1.00
2019-01-23T23:12:00.487Z,1.10
2019-01-23T23:14:30.433Z,4.00
2019-01-23T23:17:01.417Z,2.60
2019-01-23T23:19:31.429Z,2.60
2019-01-23T23:22:01.450Z,1.70
2019-01-23T23:24:31.664Z,0.90
2019-01-23T23:27:02.261Z,1.00
2019-01-23T23:29:32.255Z,0.80
2019-01-23T23:32:02.389Z,0.80
2019-01-23T23:34:32.549Z,1.70
2019-01-23T23:37:02.559Z,0.80
2019-01-23T23:39:32.909Z,0.70
2019-01-23T23:42:02.841Z,0.73
2019-01-23T23:44:33.308Z,0.80
2019-01-23T23:47:03.390Z,0.80
2019-01-23T23:49:33.357Z,0.90
2019-01-23T23:52:03.593Z,1.10
2019-01-23T23:54:34.521Z,1.10
2019-01-23T23:57:04.609Z,0.80
2019-01-23T23:59:34.565Z,0.80
